Time;durP1;ratioP1;P1;durP2;ratioP2;P2;SDS_P1;SDS_P2;PMS_P1;PMS_P2;Temp;Humidity;BMP_temperature;BMP_pressure;BME280_temperature;BME280_humidity;BME280_pressure;Samples;Min_cycle;Max_cycle;Signal;HPM_P1;HPM_P2
2022/06/28 00:01:40;;;;;;;;;;;14.30;99.90;;;;;;5086312;28;19912;-59
2022/06/28 00:04:05;;;;;;;;;;;14.30;99.90;;;;;;5082524;28;19920;-61
2022/06/28 00:06:31;;;;;;;;;;;14.30;99.90;;;;;;5085081;28;20274;-60
2022/06/28 00:08:57;;;;;;;;;;;14.40;99.90;;;;;;5085906;28;19970;-60
2022/06/28 00:11:23;;;;;;;;;;;14.30;99.90;;;;;;5086184;28;19912;-59
2022/06/28 00:13:48;;;;;;;;;;;14.20;99.90;;;;;;5082137;28;19912;-59
2022/06/28 00:16:16;;;;;;;;;;;14.20;99.90;;;;;;5066145;28;20289;-59
2022/06/28 00:18:42;;;;;;;;;;;14.20;99.90;;;;;;5067132;28;19920;-60
2022/06/28 00:21:11;;;;;;;;;;;14.10;99.90;;;;;;5084996;28;19973;-59
2022/06/28 00:23:38;;;;;;;;;;;14.10;99.90;;;;;;5084629;28;19966;-59
2022/06/28 00:26:04;;;;;;;;;;;14.00;99.90;;;;;;5066818;28;19912;-60
2022/06/28 00:28:30;;;;;;;;;;;14.00;99.90;;;;;;5083424;28;20366;-61
2022/06/28 00:30:56;;;;;;;;;;;13.90;99.90;;;;;;5084771;28;19912;-59
2022/06/28 00:33:21;;;;;;;;;;;13.90;99.90;;;;;;5082884;28;20327;-60
2022/06/28 00:35:47;;;;;;;;;;;13.90;99.90;;;;;;5084987;28;19981;-62
2022/06/28 00:38:13;;;;;;;;;;;13.90;99.90;;;;;;5081897;28;19913;-59
2022/06/28 00:40:41;;;;;;;;;;;13.80;99.90;;;;;;5085429;28;20342;-60
2022/06/28 00:43:10;;;;;;;;;;;13.80;99.90;;;;;;5082992;28;19966;-60
2022/06/28 00:45:36;;;;;;;;;;;13.80;99.90;;;;;;5062390;28;19919;-61
2022/06/28 00:48:02;;;;;;;;;;;13.70;99.90;;;;;;5083704;28;19942;-59
2022/06/28 00:50:28;;;;;;;;;;;13.70;99.90;;;;;;5084578;28;20373;-59
2022/06/28 00:53:00;;;;;;;;;;;13.80;99.90;;;;;;5083036;28;19912;-59
2022/06/28 00:55:26;;;;;;;;;;;13.70;99.90;;;;;;5084925;28;19921;-61
2022/06/28 00:57:51;;;;;;;;;;;13.80;99.90;;;;;;5085404;28;19939;-61
2022/06/28 01:00:17;;;;;;;;;;;13.70;99.90;;;;;;5086570;28;19912;-59
2022/06/28 01:02:43;;;;;;;;;;;13.70;99.90;;;;;;5087153;28;19927;-58
2022/06/28 01:05:08;;;;;;;;;;;13.70;99.90;;;;;;5085544;28;19912;-57
2022/06/28 01:07:34;;;;;;;;;;;13.70;99.90;;;;;;5085499;28;20340;-59
2022/06/28 01:10:00;;;;;;;;;;;13.70;99.90;;;;;;5086145;28;20378;-55
2022/06/28 01:13:03;;;;;;;;;;;13.70;99.90;;;;;;5087612;28;19959;-59
2022/06/28 01:15:28;;;;;;;;;;;13.70;99.90;;;;;;5085916;28;20863;-59
2022/06/28 01:17:54;;;;;;;;;;;13.70;99.90;;;;;;5083119;28;19919;-59
2022/06/28 01:20:20;;;;;;;;;;;13.70;99.90;;;;;;5084794;28;19989;-60
2022/06/28 01:22:46;;;;;;;;;;;13.70;99.90;;;;;;5081387;28;19920;-59
2022/06/28 01:25:11;;;;;;;;;;;13.80;99.90;;;;;;5084397;28;19919;-60
2022/06/28 01:27:38;;;;;;;;;;;13.80;99.90;;;;;;5085546;28;19958;-60
2022/06/28 01:30:04;;;;;;;;;;;13.80;99.90;;;;;;5085105;28;19912;-59
2022/06/28 01:32:30;;;;;;;;;;;13.80;99.90;;;;;;5085615;28;19916;-58
2022/06/28 01:34:55;;;;;;;;;;;13.80;99.90;;;;;;5084925;28;20327;-61
2022/06/28 01:37:21;;;;;;;;;;;13.70;99.90;;;;;;5084738;28;19912;-57
2022/06/28 01:39:47;;;;;;;;;;;13.70;99.90;;;;;;5083595;28;20007;-59
2022/06/28 01:42:13;;;;;;;;;;;13.60;99.90;;;;;;5082078;28;20448;-59
2022/06/28 01:44:39;;;;;;;;;;;13.60;99.90;;;;;;5085624;28;19916;-65
2022/06/28 01:47:06;;;;;;;;;;;13.60;99.90;;;;;;5083730;28;19913;-60
2022/06/28 01:49:31;;;;;;;;;;;13.70;99.90;;;;;;5085866;28;20376;-58
2022/06/28 01:51:57;;;;;;;;;;;13.70;99.90;;;;;;5082222;28;19949;-62
2022/06/28 01:54:23;;;;;;;;;;;13.70;99.90;;;;;;5081518;28;19919;-60
2022/06/28 01:56:48;;;;;;;;;;;13.60;99.90;;;;;;5085210;28;19916;-60
2022/06/28 01:59:14;;;;;;;;;;;13.60;99.90;;;;;;5081340;28;19913;-61
2022/06/28 02:01:40;;;;;;;;;;;13.70;99.90;;;;;;5082509;28;20281;-60
2022/06/28 02:04:26;;;;;;;;;;;13.70;99.90;;;;;;5086077;28;19955;-61
2022/06/28 02:06:52;;;;;;;;;;;13.70;99.90;;;;;;5084469;28;20350;-60
2022/06/28 02:09:17;;;;;;;;;;;13.70;99.90;;;;;;5085006;28;19919;-60
2022/06/28 02:11:43;;;;;;;;;;;13.60;99.90;;;;;;5083789;28;19998;-60
2022/06/28 02:14:09;;;;;;;;;;;13.60;99.90;;;;;;5083411;28;20328;-59
2022/06/28 02:16:35;;;;;;;;;;;13.60;99.90;;;;;;5081135;28;19941;-60
2022/06/28 02:19:01;;;;;;;;;;;13.60;99.90;;;;;;5081339;28;19927;-59
2022/06/28 02:21:27;;;;;;;;;;;13.60;99.90;;;;;;5067723;28;20429;-60
2022/06/28 02:23:53;;;;;;;;;;;13.70;99.90;;;;;;5079781;28;19927;-61
2022/06/28 02:26:19;;;;;;;;;;;13.70;99.90;;;;;;5081487;28;19913;-60
2022/06/28 02:28:45;;;;;;;;;;;13.70;99.90;;;;;;5085138;28;19919;-60
2022/06/28 02:31:11;;;;;;;;;;;13.70;99.90;;;;;;5083503;28;19912;-62
2022/06/28 02:33:37;;;;;;;;;;;13.70;99.90;;;;;;5084230;28;19938;-61
2022/06/28 02:41:30;;;;;;;;;;;13.50;99.90;;;;;;5084482;28;20392;-61
2022/06/28 02:43:56;;;;;;;;;;;13.50;99.90;;;;;;5084283;28;19928;-61
2022/06/28 02:46:22;;;;;;;;;;;13.40;99.90;;;;;;5086568;28;19927;-61
2022/06/28 02:48:47;;;;;;;;;;;13.30;99.90;;;;;;5088021;28;20285;-59
2022/06/28 02:51:13;;;;;;;;;;;13.40;99.90;;;;;;5068415;28;20428;-59
2022/06/28 02:53:39;;;;;;;;;;;13.30;99.90;;;;;;5067955;28;19957;-60
2022/06/28 02:56:05;;;;;;;;;;;13.30;99.90;;;;;;5092541;28;19919;-59
2022/06/28 02:58:30;;;;;;;;;;;13.20;99.90;;;;;;5082023;28;19994;-61
2022/06/28 03:00:56;;;;;;;;;;;13.30;99.90;;;;;;5087068;28;20010;-60
2022/06/28 03:03:21;;;;;;;;;;;13.20;99.90;;;;;;5089764;28;19920;-60
2022/06/28 03:05:47;;;;;;;;;;;13.20;99.90;;;;;;5083585;28;20353;-61
2022/06/28 03:08:13;;;;;;;;;;;13.10;99.90;;;;;;5063910;28;20307;-59
2022/06/28 03:10:39;;;;;;;;;;;13.10;99.90;;;;;;5085573;28;19959;-59
2022/06/28 03:13:05;;;;;;;;;;;13.10;99.90;;;;;;5084338;28;19963;-59
2022/06/28 03:15:30;;;;;;;;;;;13.10;99.90;;;;;;5078717;28;19912;-58
2022/06/28 03:17:56;;;;;;;;;;;13.10;99.90;;;;;;5068343;28;19912;-59
2022/06/28 03:20:22;;;;;;;;;;;13.10;99.90;;;;;;5086476;28;19919;-59
2022/06/28 03:22:47;;;;;;;;;;;13.00;99.90;;;;;;5085282;28;19924;-60
2022/06/28 03:25:13;;;;;;;;;;;13.00;99.90;;;;;;5087299;28;19965;-59
2022/06/28 03:27:39;;;;;;;;;;;13.10;99.90;;;;;;5087008;28;20339;-59
2022/06/28 03:30:05;;;;;;;;;;;13.00;99.90;;;;;;5088029;28;19912;-59
2022/06/28 03:32:30;;;;;;;;;;;13.00;99.90;;;;;;5085208;28;19923;-62
2022/06/28 03:34:56;;;;;;;;;;;12.90;99.90;;;;;;5086052;28;19912;-59
2022/06/28 03:37:22;;;;;;;;;;;12.90;99.90;;;;;;5083967;28;19920;-58
2022/06/28 03:39:47;;;;;;;;;;;12.90;99.90;;;;;;5064740;28;19927;-58
2022/06/28 03:42:13;;;;;;;;;;;12.90;99.90;;;;;;5089284;28;19912;-58
2022/06/28 03:44:39;;;;;;;;;;;12.80;99.90;;;;;;5085095;28;19923;-60
2022/06/28 03:47:05;;;;;;;;;;;12.90;99.90;;;;;;5086272;28;19965;-59
2022/06/28 03:49:30;;;;;;;;;;;12.90;99.90;;;;;;5086973;28;19995;-59
2022/06/28 03:51:56;;;;;;;;;;;12.90;99.90;;;;;;5082490;28;19928;-58
2022/06/28 03:54:21;;;;;;;;;;;12.90;99.90;;;;;;5085773;28;19912;-59
2022/06/28 03:56:47;;;;;;;;;;;12.90;99.90;;;;;;5083171;28;19919;-58
2022/06/28 03:59:13;;;;;;;;;;;12.90;99.90;;;;;;5086628;28;19964;-60
2022/06/28 04:01:38;;;;;;;;;;;13.00;99.90;;;;;;5086300;28;20449;-60
2022/06/28 04:04:04;;;;;;;;;;;13.00;99.90;;;;;;5080740;28;20373;-59
2022/06/28 04:06:30;;;;;;;;;;;13.00;99.90;;;;;;5086375;28;20270;-60
2022/06/28 04:08:55;;;;;;;;;;;13.00;99.90;;;;;;5086517;28;20065;-59
2022/06/28 04:11:21;;;;;;;;;;;12.90;99.90;;;;;;5083437;28;20282;-58
2022/06/28 04:13:48;;;;;;;;;;;12.90;99.90;;;;;;5063771;28;19920;-59
2022/06/28 04:16:14;;;;;;;;;;;12.90;99.90;;;;;;5064941;28;19916;-59
2022/06/28 04:18:40;;;;;;;;;;;12.90;99.90;;;;;;5085424;28;20316;-60
2022/06/28 04:21:07;;;;;;;;;;;12.90;99.90;;;;;;5081639;28;19912;-57
2022/06/28 04:23:32;;;;;;;;;;;12.90;99.90;;;;;;5082080;28;20024;-61
2022/06/28 04:25:58;;;;;;;;;;;13.00;99.90;;;;;;5086354;28;20370;-61
2022/06/28 04:28:23;;;;;;;;;;;12.90;99.90;;;;;;5084726;28;20400;-60
2022/06/28 04:30:49;;;;;;;;;;;13.00;99.90;;;;;;5086587;28;20362;-59
2022/06/28 04:33:14;;;;;;;;;;;13.00;99.90;;;;;;5082825;28;19952;-59
2022/06/28 04:35:40;;;;;;;;;;;12.90;99.90;;;;;;5083362;28;20286;-58
2022/06/28 04:38:06;;;;;;;;;;;12.90;99.90;;;;;;5085454;28;19929;-58
2022/06/28 04:40:31;;;;;;;;;;;12.90;99.90;;;;;;5084114;28;19920;-59
2022/06/28 04:42:57;;;;;;;;;;;13.00;99.90;;;;;;5084716;28;19924;-60
2022/06/28 04:45:22;;;;;;;;;;;12.90;99.90;;;;;;5083298;28;19912;-62
2022/06/28 04:47:48;;;;;;;;;;;13.00;99.90;;;;;;5083057;28;19916;-60
2022/06/28 04:50:14;;;;;;;;;;;13.00;99.90;;;;;;5084854;28;20412;-59
2022/06/28 04:52:39;;;;;;;;;;;13.00;99.90;;;;;;5083753;28;20665;-59
2022/06/28 04:55:06;;;;;;;;;;;13.10;99.90;;;;;;5086403;28;19988;-60
2022/06/28 04:57:31;;;;;;;;;;;13.10;99.90;;;;;;5066585;28;19912;-59
2022/06/28 04:59:57;;;;;;;;;;;13.10;99.90;;;;;;5080963;28;19919;-60
2022/06/28 05:02:22;;;;;;;;;;;13.20;99.90;;;;;;5083449;28;19912;-61
2022/06/28 05:04:48;;;;;;;;;;;13.20;99.90;;;;;;5084254;28;20324;-60
2022/06/28 05:07:13;;;;;;;;;;;13.20;99.90;;;;;;5082765;28;20316;-59
2022/06/28 05:09:40;;;;;;;;;;;13.30;99.90;;;;;;5084950;28;21591;-62
2022/06/28 05:12:06;;;;;;;;;;;13.30;99.90;;;;;;5076752;28;19913;-61
2022/06/28 05:14:32;;;;;;;;;;;13.40;99.90;;;;;;5067914;28;20012;-61
2022/06/28 05:16:59;;;;;;;;;;;13.50;99.90;;;;;;5080606;28;20001;-61
2022/06/28 05:19:25;;;;;;;;;;;13.40;99.90;;;;;;5079469;28;20069;-59
2022/06/28 05:21:51;;;;;;;;;;;13.50;99.90;;;;;;5085045;28;19926;-61
2022/06/28 05:24:16;;;;;;;;;;;13.50;99.90;;;;;;5082767;28;19920;-59
2022/06/28 05:26:42;;;;;;;;;;;13.60;99.90;;;;;;5084952;28;19919;-61
2022/06/28 05:29:08;;;;;;;;;;;13.60;99.90;;;;;;5084884;28;20277;-61
2022/06/28 05:31:34;;;;;;;;;;;13.60;99.90;;;;;;5080612;28;19912;-60
2022/06/28 05:34:00;;;;;;;;;;;13.70;99.90;;;;;;5083985;28;20886;-60
2022/06/28 05:36:25;;;;;;;;;;;13.80;99.90;;;;;;5082432;28;19923;-60
2022/06/28 05:38:51;;;;;;;;;;;13.80;99.90;;;;;;5083063;28;19923;-61
2022/06/28 05:41:17;;;;;;;;;;;13.90;99.90;;;;;;5089248;28;19912;-61
2022/06/28 05:43:43;;;;;;;;;;;14.00;99.90;;;;;;5084481;28;19965;-61
2022/06/28 05:46:09;;;;;;;;;;;13.90;99.90;;;;;;5087449;28;19926;-61
2022/06/28 05:48:34;;;;;;;;;;;13.80;99.90;;;;;;5085558;28;19994;-58
2022/06/28 05:51:00;;;;;;;;;;;13.80;99.90;;;;;;5087260;28;19916;-60
2022/06/28 05:53:25;;;;;;;;;;;13.80;99.90;;;;;;5086950;28;19934;-60
2022/06/28 05:55:51;;;;;;;;;;;13.90;99.90;;;;;;5082427;28;19945;-60
2022/06/28 05:58:17;;;;;;;;;;;14.00;99.90;;;;;;5082514;28;20282;-61
2022/06/28 06:00:42;;;;;;;;;;;14.20;99.90;;;;;;5082840;28;20042;-60
2022/06/28 06:03:08;;;;;;;;;;;14.30;99.90;;;;;;5085949;28;19931;-60
2022/06/28 06:05:34;;;;;;;;;;;14.30;99.90;;;;;;5079396;28;19913;-59
2022/06/28 06:07:59;;;;;;;;;;;14.30;99.90;;;;;;5082101;28;19920;-60
2022/06/28 06:10:25;;;;;;;;;;;14.30;99.90;;;;;;5081021;28;19927;-61
2022/06/28 06:12:50;;;;;;;;;;;14.30;99.90;;;;;;5081481;28;19923;-61
2022/06/28 06:15:16;;;;;;;;;;;14.40;99.90;;;;;;5082210;28;20019;-60
2022/06/28 06:17:41;;;;;;;;;;;14.40;99.90;;;;;;5079867;28;19957;-62
2022/06/28 06:20:08;;;;;;;;;;;14.50;99.90;;;;;;5082931;28;21483;-60
2022/06/28 06:22:34;;;;;;;;;;;14.60;99.90;;;;;;5067778;28;20393;-60
2022/06/28 06:25:00;;;;;;;;;;;14.80;99.90;;;;;;5088497;28;19918;-61
2022/06/28 06:27:25;;;;;;;;;;;14.90;99.90;;;;;;5091412;28;19916;-61
2022/06/28 06:29:51;;;;;;;;;;;15.00;99.90;;;;;;5086595;28;20010;-60
2022/06/28 06:32:16;;;;;;;;;;;15.00;99.90;;;;;;5083654;28;20038;-61
2022/06/28 06:34:42;;;;;;;;;;;15.10;99.90;;;;;;5064109;28;19923;-60
2022/06/28 06:37:08;;;;;;;;;;;15.20;99.90;;;;;;5083427;28;19982;-60
2022/06/28 06:39:33;;;;;;;;;;;15.40;99.90;;;;;;5082013;28;20279;-59
2022/06/28 06:41:59;;;;;;;;;;;15.70;99.90;;;;;;5084339;28;19912;-60
2022/06/28 06:44:26;;;;;;;;;;;15.90;99.90;;;;;;5087873;28;19920;-61
2022/06/28 06:46:51;;;;;;;;;;;16.00;99.90;;;;;;5068352;28;20380;-60
2022/06/28 06:49:17;;;;;;;;;;;16.00;99.90;;;;;;5086401;28;19912;-61
2022/06/28 06:51:48;;;;;;;;;;;16.00;99.90;;;;;;5085922;28;20079;-59
2022/06/28 06:54:14;;;;;;;;;;;16.10;99.90;;;;;;5074642;28;19919;-59
2022/06/28 06:56:40;;;;;;;;;;;16.20;99.90;;;;;;5082395;28;19916;-61
2022/06/28 06:59:11;;;;;;;;;;;16.30;99.90;;;;;;5078237;28;20437;-61
2022/06/28 07:01:37;;;;;;;;;;;16.40;99.90;;;;;;5063656;28;19942;-61
2022/06/28 07:04:03;;;;;;;;;;;16.70;99.90;;;;;;5087802;28;20296;-61
2022/06/28 07:06:29;;;;;;;;;;;16.70;99.90;;;;;;5082620;28;19927;-60
2022/06/28 07:08:55;;;;;;;;;;;16.60;99.90;;;;;;5091387;28;19916;-61
2022/06/28 07:11:20;;;;;;;;;;;16.50;99.90;;;;;;5084387;28;19920;-61
2022/06/28 07:13:46;;;;;;;;;;;16.70;99.90;;;;;;5085794;28;20350;-61
2022/06/28 07:16:11;;;;;;;;;;;16.80;99.90;;;;;;5088229;28;19920;-62
2022/06/28 07:18:37;;;;;;;;;;;16.80;99.90;;;;;;5090341;28;19924;-61
2022/06/28 07:21:03;;;;;;;;;;;16.80;99.90;;;;;;5089017;28;20446;-62
2022/06/28 07:23:28;;;;;;;;;;;17.10;99.90;;;;;;5090306;28;19927;-61
2022/06/28 07:25:54;;;;;;;;;;;17.10;99.90;;;;;;5091835;28;19912;-62
2022/06/28 07:28:19;;;;;;;;;;;17.10;99.90;;;;;;5087546;28;19919;-59
2022/06/28 07:30:46;;;;;;;;;;;17.10;99.90;;;;;;5091015;28;20027;-62
2022/06/28 07:33:12;;;;;;;;;;;17.10;99.90;;;;;;5067242;28;19947;-62
2022/06/28 07:35:38;;;;;;;;;;;17.20;99.90;;;;;;5088041;28;20022;-60
2022/06/28 07:38:03;;;;;;;;;;;17.50;99.90;;;;;;5063860;28;20090;-61
2022/06/28 07:40:29;;;;;;;;;;;17.70;99.90;;;;;;5092102;28;19912;-61
2022/06/28 07:42:55;;;;;;;;;;;17.80;99.90;;;;;;5085344;28;19935;-61
2022/06/28 07:45:20;;;;;;;;;;;17.90;99.90;;;;;;5084438;28;19970;-60
2022/06/28 07:47:47;;;;;;;;;;;17.90;99.90;;;;;;5088758;28;19930;-60
2022/06/28 07:53:02;;;;;;;;;;;18.00;99.90;;;;;;5088569;28;19919;-61
2022/06/28 07:55:28;;;;;;;;;;;18.20;99.90;;;;;;5088592;28;20284;-62
2022/06/28 07:57:53;;;;;;;;;;;18.10;99.90;;;;;;5087874;28;19913;-61
2022/06/28 08:00:21;;;;;;;;;;;18.00;99.90;;;;;;5084001;28;19935;-61
2022/06/28 08:02:47;;;;;;;;;;;18.20;99.90;;;;;;5088636;28;20015;-61
2022/06/28 08:05:12;;;;;;;;;;;18.10;99.90;;;;;;5087885;28;19918;-62
2022/06/28 08:07:38;;;;;;;;;;;17.90;99.90;;;;;;5072949;28;19919;-60
2022/06/28 08:10:04;;;;;;;;;;;18.10;99.90;;;;;;5088912;28;19921;-60
2022/06/28 08:12:29;;;;;;;;;;;18.20;99.90;;;;;;5089345;28;19938;-61
2022/06/28 08:14:55;;;;;;;;;;;18.10;99.90;;;;;;5088538;28;20323;-61
2022/06/28 08:17:20;;;;;;;;;;;18.40;99.90;;;;;;5088926;28;20357;-61
2022/06/28 08:19:46;;;;;;;;;;;18.40;99.90;;;;;;5088419;28;19921;-61
2022/06/28 08:22:12;;;;;;;;;;;18.50;99.90;;;;;;5090431;28;20272;-61
2022/06/28 08:24:37;;;;;;;;;;;18.50;99.90;;;;;;5088130;28;19931;-60
2022/06/28 08:27:04;;;;;;;;;;;18.40;99.90;;;;;;5086592;28;19912;-61
2022/06/28 08:29:30;;;;;;;;;;;18.60;99.90;;;;;;5071419;28;20349;-61
2022/06/28 08:31:56;;;;;;;;;;;18.80;99.90;;;;;;5087689;28;19912;-60
2022/06/28 08:34:22;;;;;;;;;;;18.80;99.90;;;;;;5089566;28;19918;-59
2022/06/28 08:36:47;;;;;;;;;;;18.30;99.90;;;;;;5089342;28;19912;-62
2022/06/28 08:39:13;;;;;;;;;;;18.20;99.90;;;;;;5087139;28;19912;-61
2022/06/28 08:41:40;;;;;;;;;;;18.30;99.90;;;;;;5088507;28;19940;-61
2022/06/28 08:44:06;;;;;;;;;;;18.60;99.90;;;;;;5086792;28;19978;-61
2022/06/28 08:46:34;;;;;;;;;;;18.70;99.70;;;;;;5065592;28;20285;-62
2022/06/28 08:49:04;;;;;;;;;;;19.00;99.80;;;;;;5083148;28;19912;-61
2022/06/28 08:51:31;;;;;;;;;;;19.00;99.80;;;;;;5085389;28;20011;-61
2022/06/28 08:54:00;;;;;;;;;;;19.30;97.40;;;;;;5089637;28;20011;-61
2022/06/28 08:56:26;;;;;;;;;;;19.20;96.80;;;;;;5084133;28;19931;-61
2022/06/28 08:58:52;;;;;;;;;;;19.00;96.30;;;;;;5077570;28;19919;-61
2022/06/28 09:01:18;;;;;;;;;;;18.70;97.00;;;;;;5085731;28;20595;-63
2022/06/28 09:03:46;;;;;;;;;;;18.80;97.90;;;;;;5069369;28;19967;-61
2022/06/28 09:06:12;;;;;;;;;;;18.80;97.70;;;;;;5087544;28;19912;-62
2022/06/28 09:08:38;;;;;;;;;;;18.90;96.20;;;;;;5082382;28;19912;-61
2022/06/28 09:11:04;;;;;;;;;;;18.80;98.50;;;;;;5087662;28;19995;-61
2022/06/28 09:13:30;;;;;;;;;;;19.10;95.80;;;;;;5086954;28;20409;-61
2022/06/28 09:16:00;;;;;;;;;;;19.10;95.30;;;;;;5081505;28;19977;-61
2022/06/28 09:18:35;;;;;;;;;;;19.50;95.60;;;;;;5083827;28;19927;-61
2022/06/28 09:21:01;;;;;;;;;;;19.20;94.70;;;;;;5085295;28;19912;-61
2022/06/28 09:23:31;;;;;;;;;;;19.20;94.90;;;;;;5080465;28;20408;-62
2022/06/28 09:26:07;;;;;;;;;;;19.50;95.70;;;;;;5086875;28;19919;-61
2022/06/28 09:28:33;;;;;;;;;;;19.60;94.50;;;;;;5086389;28;20005;-60
2022/06/28 09:31:13;;;;;;;;;;;19.20;93.00;;;;;;5065956;28;19930;-61
2022/06/28 09:33:39;;;;;;;;;;;19.30;94.50;;;;;;5085793;28;20199;-61
2022/06/28 09:36:05;;;;;;;;;;;19.40;92.80;;;;;;5083402;28;20010;-61
2022/06/28 09:38:32;;;;;;;;;;;19.40;92.60;;;;;;5069560;28;19951;-62
2022/06/28 09:40:58;;;;;;;;;;;19.50;91.90;;;;;;5088553;28;19941;-61
2022/06/28 09:43:29;;;;;;;;;;;19.20;92.80;;;;;;5088666;28;19919;-62
2022/06/28 09:45:56;;;;;;;;;;;19.30;93.10;;;;;;5083505;28;19919;-61
2022/06/28 09:48:22;;;;;;;;;;;19.20;93.00;;;;;;5088066;28;19919;-60
2022/06/28 09:50:48;;;;;;;;;;;19.20;91.80;;;;;;5086780;28;20370;-63
2022/06/28 09:53:15;;;;;;;;;;;19.40;93.90;;;;;;5067364;28;19919;-61
2022/06/28 09:55:41;;;;;;;;;;;19.60;90.90;;;;;;5089091;28;20005;-62
2022/06/28 09:58:07;;;;;;;;;;;19.50;92.10;;;;;;5088393;28;19919;-60
2022/06/28 10:00:35;;;;;;;;;;;19.70;91.40;;;;;;5090507;28;20476;-62
2022/06/28 10:03:01;;;;;;;;;;;19.60;91.40;;;;;;5072565;28;20030;-60
2022/06/28 10:05:27;;;;;;;;;;;19.50;92.00;;;;;;5084325;28;19912;-61
2022/06/28 10:07:53;;;;;;;;;;;19.40;92.30;;;;;;5087430;28;19916;-61
2022/06/28 10:10:22;;;;;;;;;;;19.60;91.60;;;;;;5068105;28;19912;-62
2022/06/28 10:15:36;;;;;;;;;;;19.70;92.80;;;;;;5091733;28;19923;-61
2022/06/28 10:18:03;;;;;;;;;;;19.70;90.50;;;;;;5072217;28;19912;-61
2022/06/28 10:20:30;;;;;;;;;;;19.60;92.20;;;;;;5090361;28;19929;-61
2022/06/28 10:23:15;;;;;;;;;;;19.80;90.40;;;;;;5072808;28;19920;-61
2022/06/28 10:25:40;;;;;;;;;;;19.90;91.00;;;;;;5088968;28;20251;-61
2022/06/28 10:28:25;;;;;;;;;;;20.00;89.40;;;;;;5087891;28;20006;-61
2022/06/28 10:31:11;;;;;;;;;;;20.30;89.40;;;;;;5088393;28;19935;-61
2022/06/28 10:33:40;;;;;;;;;;;19.90;89.30;;;;;;5088821;28;19912;-61
2022/06/28 10:36:15;;;;;;;;;;;19.60;90.20;;;;;;5090621;28;19934;-62
2022/06/28 10:39:00;;;;;;;;;;;19.90;90.50;;;;;;5086210;28;20285;-61
2022/06/28 10:41:40;;;;;;;;;;;19.90;90.50;;;;;;5090957;28;19919;-62
2022/06/28 10:44:10;;;;;;;;;;;20.00;88.40;;;;;;5071500;28;19962;-61
2022/06/28 10:46:37;;;;;;;;;;;20.00;89.40;;;;;;5087795;28;19947;-61
2022/06/28 10:49:05;;;;;;;;;;;20.10;88.60;;;;;;5089030;28;19957;-61
2022/06/28 10:51:32;;;;;;;;;;;20.20;87.60;;;;;;5084436;28;19912;-61
2022/06/28 10:53:57;;;;;;;;;;;20.20;86.90;;;;;;5090293;28;20326;-61
2022/06/28 10:56:24;;;;;;;;;;;19.80;89.00;;;;;;5090605;28;19919;-61
2022/06/28 10:58:53;;;;;;;;;;;19.80;90.30;;;;;;5090928;28;20316;-61
2022/06/28 11:01:19;;;;;;;;;;;19.70;88.30;;;;;;5070819;28;19923;-62
2022/06/28 11:04:13;;;;;;;;;;;19.80;89.00;;;;;;5090341;28;19924;-62
2022/06/28 11:06:39;;;;;;;;;;;19.90;88.20;;;;;;5070314;28;19912;-61
2022/06/28 11:09:08;;;;;;;;;;;19.90;89.90;;;;;;5090453;28;19935;-61
2022/06/28 11:11:34;;;;;;;;;;;20.10;90.00;;;;;;5083423;28;19920;-61
2022/06/28 11:14:18;;;;;;;;;;;20.30;88.30;;;;;;5086372;28;20058;-61
2022/06/28 11:16:45;;;;;;;;;;;20.00;88.00;;;;;;5087753;28;20408;-62
2022/06/28 11:19:11;;;;;;;;;;;19.50;90.40;;;;;;5084494;28;19993;-62
2022/06/28 11:21:37;;;;;;;;;;;19.50;90.80;;;;;;5054292;28;19916;-61
2022/06/28 11:24:05;;;;;;;;;;;19.80;90.30;;;;;;5088907;28;20176;-60
2022/06/28 11:29:18;;;;;;;;;;;20.00;90.00;;;;;;5085311;28;19969;-61
2022/06/28 11:31:44;;;;;;;;;;;20.00;88.60;;;;;;5086450;28;19962;-62
2022/06/28 11:34:09;;;;;;;;;;;19.80;89.30;;;;;;5088586;28;19969;-60
2022/06/28 11:36:35;;;;;;;;;;;19.80;90.10;;;;;;5086533;28;19920;-61
2022/06/28 11:39:15;;;;;;;;;;;20.10;88.80;;;;;;5084745;28;19916;-61
2022/06/28 11:41:46;;;;;;;;;;;20.20;89.70;;;;;;5084241;28;19927;-61
2022/06/28 11:44:12;;;;;;;;;;;19.80;89.00;;;;;;5083218;28;19978;-62
2022/06/28 11:46:39;;;;;;;;;;;19.70;90.00;;;;;;5084309;28;19920;-61
2022/06/28 11:49:05;;;;;;;;;;;19.60;90.20;;;;;;5088464;28;19966;-61
2022/06/28 11:51:31;;;;;;;;;;;19.60;90.60;;;;;;5089289;28;20002;-62
2022/06/28 11:54:04;;;;;;;;;;;19.50;90.90;;;;;;5088648;28;19908;-61
2022/06/28 11:56:41;;;;;;;;;;;19.70;90.70;;;;;;5066367;28;20242;-61
2022/06/28 11:59:07;;;;;;;;;;;19.80;90.50;;;;;;5086325;28;19912;-63
2022/06/28 12:01:37;;;;;;;;;;;20.00;89.70;;;;;;5088906;28;19923;-63
2022/06/28 12:04:06;;;;;;;;;;;20.30;88.60;;;;;;5088327;28;20044;-62
2022/06/28 12:06:36;;;;;;;;;;;20.20;87.20;;;;;;5071768;28;19916;-63
2022/06/28 12:09:06;;;;;;;;;;;20.20;88.40;;;;;;5089716;28;20003;-62
2022/06/28 12:11:36;;;;;;;;;;;20.30;86.00;;;;;;5086072;28;19976;-61
2022/06/28 12:14:15;;;;;;;;;;;19.80;87.90;;;;;;5089503;28;19999;-61
2022/06/28 12:16:41;;;;;;;;;;;20.00;88.40;;;;;;5087615;28;19912;-60
2022/06/28 12:19:08;;;;;;;;;;;20.20;86.90;;;;;;5081311;28;19939;-62
2022/06/28 12:21:36;;;;;;;;;;;20.30;87.40;;;;;;5069093;28;21273;-61
2022/06/28 12:24:02;;;;;;;;;;;20.50;85.50;;;;;;5066934;28;19921;-62
2022/06/28 12:26:44;;;;;;;;;;;20.40;86.20;;;;;;5086917;28;20378;-62
2022/06/28 12:29:11;;;;;;;;;;;20.30;85.00;;;;;;5087608;28;19912;-61
2022/06/28 12:31:37;;;;;;;;;;;19.90;86.40;;;;;;5087679;28;20227;-62
2022/06/28 12:34:07;;;;;;;;;;;19.60;89.40;;;;;;5087286;28;19919;-61
2022/06/28 12:36:33;;;;;;;;;;;19.80;87.20;;;;;;5065334;28;19923;-60
2022/06/28 12:38:58;;;;;;;;;;;19.80;87.60;;;;;;5087316;28;19912;-61
2022/06/28 12:41:24;;;;;;;;;;;20.20;88.60;;;;;;5088543;28;19913;-62
2022/06/28 12:43:50;;;;;;;;;;;20.20;85.90;;;;;;5085767;28;20356;-61
2022/06/28 12:46:15;;;;;;;;;;;20.00;87.00;;;;;;5087526;28;19912;-61
2022/06/28 12:48:44;;;;;;;;;;;20.30;87.40;;;;;;5086487;28;20385;-61
2022/06/28 12:51:09;;;;;;;;;;;20.40;85.10;;;;;;5087974;28;20281;-61
2022/06/28 12:53:35;;;;;;;;;;;20.50;85.20;;;;;;5084582;28;19912;-62
2022/06/28 12:56:00;;;;;;;;;;;20.40;85.50;;;;;;5086931;28;19923;-62
2022/06/28 12:58:26;;;;;;;;;;;20.20;85.20;;;;;;5086508;28;20281;-60
2022/06/28 13:00:52;;;;;;;;;;;20.20;86.50;;;;;;5087293;28;20015;-61
2022/06/28 13:03:17;;;;;;;;;;;20.40;85.60;;;;;;5087082;28;19924;-62
2022/06/28 13:05:43;;;;;;;;;;;20.60;84.70;;;;;;5088055;28;19969;-62
2022/06/28 13:08:09;;;;;;;;;;;20.50;85.30;;;;;;5088442;28;19912;-61
2022/06/28 13:10:35;;;;;;;;;;;20.60;86.10;;;;;;5087175;28;20446;-61
2022/06/28 13:13:00;;;;;;;;;;;20.70;84.50;;;;;;5087488;28;20404;-61
2022/06/28 13:15:26;;;;;;;;;;;20.90;84.80;;;;;;5089876;28;19916;-60
2022/06/28 13:17:51;;;;;;;;;;;20.60;85.70;;;;;;5083963;28;19912;-61
2022/06/28 13:20:18;;;;;;;;;;;20.50;84.90;;;;;;5088018;28;20231;-62
2022/06/28 13:22:45;;;;;;;;;;;20.10;86.00;;;;;;5082135;28;20455;-61
2022/06/28 13:25:11;;;;;;;;;;;20.20;87.80;;;;;;5086173;28;19920;-61
2022/06/28 13:27:37;;;;;;;;;;;20.10;86.50;;;;;;5080987;28;19948;-61
2022/06/28 13:30:03;;;;;;;;;;;20.10;86.90;;;;;;5086581;28;19963;-62
2022/06/28 13:32:29;;;;;;;;;;;20.20;87.90;;;;;;5069244;28;19916;-61
2022/06/28 13:34:55;;;;;;;;;;;20.10;87.40;;;;;;5087330;28;20376;-62
2022/06/28 13:37:21;;;;;;;;;;;20.00;88.00;;;;;;5089950;28;19912;-61
2022/06/28 13:39:46;;;;;;;;;;;19.90;87.40;;;;;;5081774;28;19912;-61
2022/06/28 13:42:12;;;;;;;;;;;20.00;88.00;;;;;;5068802;28;19923;-60
2022/06/28 13:44:38;;;;;;;;;;;20.00;87.50;;;;;;5087074;28;19920;-62
2022/06/28 13:47:03;;;;;;;;;;;20.00;87.80;;;;;;5083971;28;19912;-62
2022/06/28 13:49:29;;;;;;;;;;;20.00;87.70;;;;;;5086891;28;19922;-61
2022/06/28 13:51:55;;;;;;;;;;;19.80;88.70;;;;;;5083365;28;19919;-62
2022/06/28 13:54:20;;;;;;;;;;;19.70;89.20;;;;;;5085538;28;19969;-62
2022/06/28 13:56:46;;;;;;;;;;;19.60;90.00;;;;;;5064308;28;19928;-63
2022/06/28 13:59:12;;;;;;;;;;;19.60;89.30;;;;;;5082402;28;19912;-61
2022/06/28 14:01:38;;;;;;;;;;;19.30;90.20;;;;;;5084393;28;19923;-60
2022/06/28 14:04:03;;;;;;;;;;;19.10;90.90;;;;;;5085155;28;19920;-62
2022/06/28 14:06:29;;;;;;;;;;;19.10;91.50;;;;;;5080671;28;20276;-61
2022/06/28 14:08:55;;;;;;;;;;;19.20;91.50;;;;;;5079497;28;19981;-60
2022/06/28 14:11:20;;;;;;;;;;;19.20;91.60;;;;;;5093411;28;19919;-61
2022/06/28 14:13:46;;;;;;;;;;;19.20;91.80;;;;;;5093248;28;20323;-61
2022/06/28 14:16:12;;;;;;;;;;;19.20;92.00;;;;;;5088627;28;19951;-63
2022/06/28 14:18:37;;;;;;;;;;;19.10;92.10;;;;;;5092972;28;19920;-59
2022/06/28 14:21:04;;;;;;;;;;;19.00;92.20;;;;;;5095537;28;19935;-61
2022/06/28 14:23:29;;;;;;;;;;;18.90;92.70;;;;;;5094643;28;19916;-61
2022/06/28 14:25:55;;;;;;;;;;;18.90;92.40;;;;;;5077584;28;19912;-62
2022/06/28 14:28:21;;;;;;;;;;;18.80;92.80;;;;;;5094240;28;20285;-61